Latest Weather Observations for Essendon Airport

IDV60801

Issued at 11:31 am EST Tuesday 26 May 2015 (issued every 30 minutes, with the page automatically refreshed every 10 minutes)

About weather observations | Map of weather stations | Latest weather observations for VIC | Other Formats
Station Details ID: 086038 Name: ESSENDON AIRPORT Lat: -37.73 Lon: 144.91 Height: 78.4 m
Data from the previous 72 hours. | See also: Recent months at Essendon Airport
Date/Time
EST
Temp
°C
App
Temp
°C
Dew
Point
Rel
Hum
%
Delta-T
°C
Wind Press
QNH
hPa
Press
MSL
hPa
Rain
since 9 am
mm
Dir
 
Spd
km/h
Gust
km/h
Spd
kts
Gust
kts
26/11:30am 13.8 10.7 7.3 65 3.2 N 13 19 7 10 1027.9 1028.0 0.0
26/11:00am 13.5 10.4 7.3 66 3.0 N 13 20 7 11 1028.7 1028.7 0.0
26/10:30am 12.9 9.1 7.4 69 2.7 N 17 24 9 13 1029.2 1029.2 0.0
26/10:00am 12.4 8.6 7.7 73 2.3 N 17 22 9 12 1029.4 1029.4 0.0
26/09:30am 10.9 8.2 7.2 78 1.8 N 11 13 6 7 1029.4 1029.4 0.0
26/09:00am 9.5 7.4 6.8 83 1.3 N 7 9 4 5 1029.5 1029.5 0.0
26/08:30am 6.4 3.7 5.7 95 0.3 NE 9 11 5 6 1029.5 1029.5 0.0
26/08:00am 4.3 1.3 4.2 99 0.0 NE 9 11 5 6 1029.6 1029.6 0.0
26/07:30am 2.9 0.0 2.8 99 0.0 NNE 7 9 4 5 1029.5 1029.5 0.0
26/07:00am 3.7 0.2 3.6 99 0.0 ENE 11 13 6 7 1029.2 1029.2 0.0
26/06:30am 3.4 0.2 3.1 98 0.1 ENE 9 11 5 6 1029.1 1029.1 0.0
26/06:00am 3.4 0.2 3.1 98 0.1 NE 9 11 5 6 1028.9 1028.9 0.0
26/05:30am 4.1 1.4 3.8 98 0.1 NE 7 9 4 5 1028.9 1028.9 0.0
26/05:00am 3.9 0.8 3.5 97 0.2 ENE 9 11 5 6 1028.9 1028.9 0.0
26/04:30am 4.2 1.1 3.5 95 0.3 ENE 9 11 5 6 1029.0 1029.0 0.0
26/04:00am 4.6 1.5 3.7 94 0.4 ENE 9 9 5 5 1029.0 1029.0 0.0
26/03:30am 6.1 3.2 4.4 89 0.7 NNE 9 13 5 7 1028.9 1028.9 0.0
26/03:00am 5.6 3.1 3.8 88 0.8 NNE 6 9 3 5 1029.1 1029.1 0.0
26/02:30am 7.5 4.0 5.5 87 0.9 N 13 17 7 9 1029.3 1029.3 0.0
26/02:00am 7.7 4.9 5.3 85 1.1 N 9 13 5 7 1029.3 1029.3 0.0
26/01:30am 8.3 4.9 5.8 84 1.1 N 13 17 7 9 1029.3 1029.3 0.0
26/01:00am 8.3 4.5 5.9 85 1.1 N 15 19 8 10 1029.4 1029.4 0.0
26/12:30am 8.1 4.7 6.1 87 0.9 N 13 17 7 9 1029.6 1029.6 0.0
26/12:00am 6.6 3.5 5.6 93 0.4 NNE 11 15 6 8 1029.7 1029.7 0.0
 
Date/Time
EST
Temp
°C
App
Temp
°C
Dew
Point
Rel
Hum
%
Delta-T
°C
Wind Press
QNH
hPa
Press
MSL
hPa
Rain
since 9 am
mm
Dir
 
Spd
km/h
Gust
km/h
Spd
kts
Gust
kts
25/11:30pm 6.5 3.0 5.3 92 0.5 NE 13 13 7 7 1029.7 1029.7 0.0
25/11:00pm 7.3 4.2 5.4 88 0.8 NE 11 13 6 7 1029.8 1029.8 0.0
25/10:30pm 8.6 6.3 5.5 81 1.4 N 7 9 4 5 1030.1 1030.1 0.0
25/10:00pm 9.2 6.2 5.8 79 1.5 NNE 11 15 6 8 1030.0 1030.0 0.0
25/09:30pm 9.6 6.6 6.1 79 1.6 NNE 11 15 6 8 1030.2 1030.2 0.0
25/09:00pm 9.9 6.2 6.2 78 1.7 N 15 19 8 10 1030.2 1030.2 0.0
25/08:30pm 9.9 7.3 6.1 77 1.7 N 9 11 5 6 1030.1 1030.1 0.0
25/08:00pm 10.3 7.4 6.3 76 1.9 N 11 15 6 8 1030.0 1030.0 0.0
25/07:30pm 10.4 7.9 6.4 76 1.9 N 9 13 5 7 1029.9 1029.9 0.0
25/07:00pm 11.4 9.5 6.7 73 2.2 N 6 9 3 5 1029.8 1029.8 0.0
25/06:30pm 11.3 8.8 6.6 73 2.2 NNE 9 11 5 6 1029.3 1029.3 0.0
25/06:00pm 11.7 9.3 7.0 73 2.2 NNE 9 15 5 8 1029.1 1029.1 0.0
25/05:30pm 12.9 10.6 7.4 69 2.7 NE 9 11 5 6 1028.8 1028.8 0.0
25/05:00pm 13.4 11.0 7.2 66 3.0 NE 9 13 5 7 1028.6 1028.6 0.0
25/04:30pm 14.9 12.3 7.7 62 3.6 NE 11 15 6 8 1028.6 1028.6 0.0
25/04:00pm 15.4 12.4 7.7 60 3.8 NE 13 17 7 9 1028.7 1028.7 0.0
25/03:30pm 15.5 13.2 7.5 59 4.0 NNE 9 13 5 7 1028.7 1028.7 0.0
25/03:00pm 15.5 12.5 7.5 59 4.0 NNE 13 15 7 8 1028.6 1028.6 0.0
25/02:30pm 15.4 12.3 7.2 58 4.1 NNE 13 17 7 9 1028.9 1028.9 0.0
25/02:00pm 16.0 12.6 7.7 58 4.1 N 15 19 8 10 1029.2 1029.2 0.0
25/01:30pm 15.6 12.3 8.1 61 3.8 N 15 20 8 11 1029.5 1029.5 0.0
25/01:00pm 14.7 11.4 8.2 65 3.2 N 15 20 8 11 1029.9 1029.9 0.0
25/12:30pm 13.3 10.3 7.5 68 2.8 N 13 19 7 10 1030.2 1030.2 0.0
25/12:00pm 13.4 9.6 7.6 68 2.8 N 17 22 9 12 1030.5 1030.5 0.0
25/11:30am 13.8 10.5 8.0 68 2.9 N 15 22 8 12 1031.0 1031.0 0.0
25/11:00am 13.1 9.7 7.5 69 2.7 N 15 24 8 13 1031.4 1031.4 0.0
25/10:30am 12.4 8.9 7.1 70 2.6 N 15 20 8 11 1031.6 1031.6 0.0
25/10:00am 11.8 7.9 7.1 73 2.2 N 17 20 9 11 1031.5 1031.5 0.0
25/09:30am 11.3 8.4 6.6 73 2.2 N 11 17 6 9 1031.4 1031.4 0.0
25/09:00am 10.7 7.3 6.1 73 2.1 N 13 17 7 9 1031.4 1031.4 0.0
25/08:30am 10.4 6.3 6.2 75 2.0 N 17 20 9 11 1031.4 1031.4 0.0
25/08:00am 10.2 6.4 5.8 74 2.0 N 15 20 8 11 1031.3 1031.3 0.0
25/07:30am 10.1 6.3 5.9 75 1.9 N 15 20 8 11 1031.0 1031.0 0.0
25/07:00am 10.2 5.4 5.8 74 2.0 N 20 30 11 16 1031.0 1031.0 0.0
25/06:30am 10.0 5.4 5.8 75 1.9 N 19 24 10 13 1030.8 1030.8 0.0
25/06:00am 9.7 5.5 5.9 77 1.7 N 17 22 9 12 1030.6 1030.6 0.0
25/05:30am 8.8 6.2 5.9 82 1.3 N 9 13 5 7 1030.3 1030.3 0.0
25/05:00am 8.6 6.5 5.7 82 1.3 NE 6 7 3 4 1029.6 1029.6 0.0
25/04:30am 9.3 6.3 6.0 80 1.5 NNE 11 15 6 8 1029.8 1029.8 0.0
25/04:00am 8.7 6.0 5.8 82 1.3 NNE 9 11 5 6 1029.8 1029.8 0.0
25/03:30am 9.1 6.8 5.8 80 1.5 NNE 7 11 4 6 1029.8 1029.8 0.0
25/03:00am 8.9 6.2 5.8 81 1.4 N 9 11 5 6 1030.3 1030.3 0.0
25/02:30am 9.1 6.1 6.0 81 1.4 N 11 17 6 9 1030.3 1030.3 0.0
25/02:00am 8.8 5.8 5.9 82 1.3 N 11 13 6 7 1030.4 1030.4 0.0
25/01:30am 8.5 5.5 5.8 83 1.2 N 11 13 6 7 1030.5 1030.5 0.0
25/01:00am 8.3 5.3 5.8 84 1.1 N 11 15 6 8 1030.3 1030.3 0.0
25/12:30am 8.6 4.8 5.9 83 1.2 N 15 17 8 9 1030.8 1030.8 0.0
25/12:00am 8.8 5.4 5.9 82 1.3 N 13 15 7 8 1030.9 1030.9 0.0
 
Date/Time
EST
Temp
°C
App
Temp
°C
Dew
Point
Rel
Hum
%
Delta-T
°C
Wind Press
QNH
hPa
Press
MSL
hPa
Rain
since 9 am
mm
Dir
 
Spd
km/h
Gust
km/h
Spd
kts
Gust
kts
24/11:30pm 8.2 5.2 5.8 85 1.1 NNE 11 15 6 8 1030.9 1030.9 0.0
24/11:00pm 7.6 4.5 5.7 88 0.8 NNE 11 13 6 7 1031.0 1031.0 0.0
24/10:30pm 8.2 5.9 5.5 83 1.2 NNW 7 9 4 5 1031.1 1031.1 0.0
24/10:00pm 8.7 5.7 6.0 83 1.2 N 11 15 6 8 1031.2 1031.2 0.0
24/09:30pm 8.7 6.1 6.0 83 1.2 N 9 11 5 6 1030.9 1030.9 0.0
24/09:00pm 9.1 5.8 6.2 82 1.3 N 13 17 7 9 1030.9 1030.9 0.0
24/08:30pm 10.1 6.0 6.4 78 1.7 N 17 20 9 11 1030.9 1030.9 0.0
24/08:00pm 10.2 6.2 6.5 78 1.7 N 17 20 9 11 1030.7 1030.7 0.0
24/07:30pm 10.5 6.8 6.5 76 1.9 N 15 19 8 10 1030.6 1030.6 0.0
24/07:00pm 11.1 7.5 6.6 74 2.1 N 15 20 8 11 1030.6 1030.6 0.0
24/06:30pm 11.3 8.0 6.4 72 2.3 N 13 19 7 10 1030.1 1030.1 0.0
24/06:00pm 11.9 9.5 7.0 72 2.3 N 9 13 5 7 1030.0 1030.0 0.0
24/05:30pm 11.0 9.4 8.2 83 1.4 SW 6 15 3 8 1029.9 1029.9 0.0
24/05:00pm 12.3 10.7 8.0 75 2.1 ENE 6 11 3 6 1029.6 1029.6 0.0
24/04:30pm 12.5 10.8 8.2 75 2.1 SE 7 9 4 5 1029.8 1029.8 0.0
24/04:00pm 13.2 10.3 8.3 72 2.4 S 13 13 7 7 1029.8 1029.8 0.0
24/03:30pm 13.5 10.1 7.7 68 2.9 S 15 19 8 10 1029.6 1029.6 0.0
24/03:00pm 14.9 11.9 7.9 63 3.5 SSW 13 17 7 9 1029.3 1029.3 0.0
24/02:30pm 15.9 14.0 7.7 58 4.1 S 7 11 4 6 1029.2 1029.2 0.0
24/02:00pm 15.8 13.9 7.6 58 4.1 S 7 9 4 5 1029.2 1029.2 0.0
24/01:30pm 15.6 13.0 7.9 60 3.9 SSE 11 19 6 10 1029.3 1029.3 0.0
24/01:00pm 16.6 14.7 7.5 55 4.5 N 7 15 4 8 1029.5 1029.5 0.0
24/12:30pm 15.3 13.7 8.1 62 3.6 E 6 9 3 5 1030.1 1030.1 0.0
24/12:00pm 13.2 11.6 8.1 71 2.5 E 6 9 3 5 1030.5 1030.5 0.0
24/11:30am 11.5 9.4 6.8 73 2.2 ENE 7 9 4 5 1031.2 1031.2 0.0
24/11:00am 9.6 7.5 6.0 78 1.6 ENE 6 9 3 5 1031.6 1031.6 0.0
24/10:30am 7.3 4.9 5.3 87 0.9 NNW 7 11 4 6 1032.1 1032.1 0.0
24/10:00am 6.7 4.0 5.5 92 0.5 NW 9 11 5 6 1032.2 1032.2 0.0
24/09:56am 6.7 4.0 5.8 94 0.4 NW 9 13 5 7 1032.2 1032.2 0.0
24/09:30am 6.7 5.4 6.1 96 0.3 E 2 9 1 5 1032.1 1032.1 0.0
24/09:00am 6.1 4.8 5.8 98 0.1 WNW 2 7 1 4 1032.2 1032.2 0.0
24/08:30am 6.0 4.7 5.9 99 0.0 ENE 2 7 1 4 1031.8 1031.8 0.0
24/08:00am 5.8 3.5 5.7 99 0.0 NNW 7 11 4 6 1031.5 1031.5 0.0
24/07:30am 5.9 3.2 5.6 98 0.1 NNE 9 15 5 8 1031.1 1031.1 0.0
24/07:00am 6.1 3.4 5.5 96 0.3 NE 9 13 5 7 1030.9 1030.9 0.0
24/06:30am 6.5 4.2 5.8 95 0.3 ENE 7 11 4 6 1031.0 1031.0 0.0
24/06:00am 6.6 4.0 5.9 95 0.3 NE 9 13 5 7 1030.6 1030.6 0.0
24/05:30am 6.9 4.6 5.8 93 0.5 NE 7 11 4 6 1030.6 1030.6 0.0
24/05:00am 7.1 4.5 5.9 92 0.5 ENE 9 13 5 7 1030.3 1030.3 0.0
24/04:30am 7.3 5.2 5.6 89 0.8 ENE 6 11 3 6 1030.3 1030.3 0.0
24/04:00am 7.5 5.4 5.6 88 0.8 N 6 9 3 5 1030.2 1030.2 0.0
24/03:30am 7.5 6.6 6.0 90 0.7 CALM 0 6 0 3 1030.3 1030.3 0.0
24/03:00am 7.8 5.6 6.3 90 0.7 NE 7 11 4 6 1030.3 1030.3 0.0
24/02:30am 7.8 6.9 6.1 89 0.8 CALM 0 6 0 3 1030.6 1030.6 0.0
24/02:00am 8.0 7.2 6.6 91 0.6 CALM 0 6 0 3 1030.9 1030.9 0.0
24/01:30am 7.7 6.9 6.6 93 0.5 CALM 0 0 0 0 1031.0 1031.0 0.0
24/01:00am 7.0 6.2 6.6 97 0.2 CALM 0 0 0 0 1031.1 1031.1 0.0
24/12:30am 6.9 4.8 6.5 97 0.2 NW 7 9 4 5 1031.4 1031.4 0.0
24/12:00am 6.7 4.5 6.3 97 0.2 NW 7 7 4 4 1031.5 1031.5 0.0
 
Date/Time
EST
Temp
°C
App
Temp
°C
Dew
Point
Rel
Hum
%
Delta-T
°C
Wind Press
QNH
hPa
Press
MSL
hPa
Rain
since 9 am
mm
Dir
 
Spd
km/h
Gust
km/h
Spd
kts
Gust
kts
23/11:42pm 6.7 4.6 6.0 95 0.3 WSW 6 7 3 4 1031.5 1031.5 0.0
23/11:30pm 6.8 5.2 6.2 96 0.3 W 4 7 2 4 1031.6 1031.6 0.0
23/11:00pm 6.7 5.1 6.4 98 0.1 NNW 4 9 2 5 1031.7 1031.7 0.0
23/10:30pm 6.0 3.8 5.3 95 0.3 NNE 6 7 3 4 1031.8 1031.8 0.0
23/10:00pm 7.2 5.9 6.1 93 0.5 NNE 2 7 1 4 1031.8 1031.8 0.0
23/09:30pm 7.5 6.7 6.3 92 0.5 CALM 0 0 0 0 1032.1 1032.1 0.0
23/09:00pm 7.1 6.1 5.6 90 0.7 CALM 0 4 0 2 1032.1 1032.1 0.0
23/08:30pm 7.5 4.9 6.1 91 0.6 W 9 9 5 5 1032.0 1032.0 0.0
23/08:00pm 7.7 5.0 5.8 88 0.9 WSW 9 11 5 6 1031.9 1031.9 0.0
23/07:30pm 7.9 5.7 6.0 88 0.9 WSW 7 9 4 5 1031.7 1031.7 0.0
23/07:00pm 7.5 4.8 5.8 89 0.8 SW 9 11 5 6 1031.6 1031.6 0.0
23/06:30pm 7.9 5.2 5.5 85 1.1 SSW 9 11 5 6 1031.5 1031.5 0.0
23/06:00pm 8.7 6.1 6.2 84 1.1 SSW 9 13 5 7 1031.5 1031.5 0.0
23/05:30pm 9.3 6.7 5.9 79 1.6 SSW 9 13 5 7 1031.4 1031.4 0.0
23/05:00pm 10.4 7.5 6.4 76 1.9 SSW 11 15 6 8 1031.4 1031.4 0.0
23/04:30pm 10.7 7.4 6.5 75 2.0 S 13 19 7 10 1031.5 1031.5 0.0
23/04:00pm 11.3 7.3 6.6 73 2.2 S 17 22 9 12 1031.5 1031.5 0.0
23/03:30pm 11.4 7.3 6.1 70 2.5 S 17 22 9 12 1031.6 1031.6 0.0
23/03:00pm 12.0 7.6 6.5 69 2.6 SSW 19 24 10 13 1031.5 1031.5 0.0
23/02:30pm 12.4 8.4 6.7 68 2.7 S 17 24 9 13 1031.4 1031.4 0.0
23/02:00pm 12.6 9.3 6.6 67 2.8 SSW 13 20 7 11 1031.3 1031.3 0.0
23/01:30pm 12.6 9.4 6.9 68 2.7 S 13 20 7 11 1031.7 1031.7 0.0
23/01:00pm 12.4 9.5 6.5 67 2.8 SSE 11 20 6 11 1031.8 1031.8 0.0
23/12:30pm 12.5 9.5 6.1 65 3.0 S 11 22 6 12 1032.0 1032.0 0.0
23/12:00pm 12.2 8.4 5.6 64 3.1 SSE 15 20 8 11 1032.5 1032.5 0.0

Other Formats:

Comma delimited format used in spreadsheet applications
http://www.bom.gov.au/fwo/IDV60801/IDV60801.95866.axf

JavaScript Object Notation format (JSON) in row-major order
http://www.bom.gov.au/fwo/IDV60801/IDV60801.95866.json